Time;durP1;ratioP1;P1;durP2;ratioP2;P2;SDS_P1;SDS_P2;PMS_P1;PMS_P2;Temp;Humidity;BMP_temperature;BMP_pressure;BME280_temperature;BME280_humidity;BME280_pressure;Samples;Min_cycle;Max_cycle;Signal;HPM_P1;HPM_P2
2022/06/20 00:02:25;;;;;;;15.13;3.15;;;;;;;14.34;91.06;101164.84;5039113;28;20048;-77
2022/06/20 00:04:53;;;;;;;15.02;3.53;;;;;;;14.33;89.47;101162.38;5050882;28;20029;-77
2022/06/20 00:07:19;;;;;;;14.70;3.40;;;;;;;14.27;88.12;101153.28;5052365;28;20044;-76
2022/06/20 00:09:44;;;;;;;11.52;2.88;;;;;;;14.21;89.40;101159.69;5018019;28;20087;-76
2022/06/20 00:12:17;;;;;;;10.65;2.65;;;;;;;14.23;91.38;101156.72;5022195;28;20060;-77
2022/06/20 00:14:42;;;;;;;11.52;2.35;;;;;;;14.23;90.90;101162.97;5032204;28;20033;-77
2022/06/20 00:17:12;;;;;;;13.45;3.53;;;;;;;14.24;89.41;101172.81;5014667;28;20083;-77
2022/06/20 00:19:38;;;;;;;11.80;2.88;;;;;;;14.22;88.33;101174.97;5016327;28;20041;-77
2022/06/20 00:22:03;;;;;;;13.73;3.40;;;;;;;14.26;87.15;101181.56;5013198;28;20030;-77
2022/06/20 00:24:30;;;;;;;14.05;2.78;;;;;;;14.29;88.35;101208.28;5012606;28;20029;-77
2022/06/20 00:26:55;;;;;;;10.95;2.78;;;;;;;14.25;87.53;101226.19;5012411;28;20034;-76
2022/06/20 00:29:21;;;;;;;13.00;2.70;;;;;;;14.37;88.15;101231.59;5012410;28;20073;-76
2022/06/20 00:31:46;;;;;;;12.40;3.10;;;;;;;14.36;85.43;101230.75;5026973;28;20034;-77
2022/06/20 00:34:13;;;;;;;10.25;2.90;;;;;;;14.41;86.15;101234.66;5016978;28;20501;-77
2022/06/20 00:36:38;;;;;;;10.68;2.38;;;;;;;14.45;85.31;101253.00;5012419;28;20077;-76
2022/06/20 00:39:04;;;;;;;14.23;2.47;;;;;;;14.48;87.31;101273.50;5012368;28;20112;-76
2022/06/20 00:41:32;;;;;;;9.30;2.70;;;;;;;14.42;87.07;101279.88;5012035;28;20041;-76
2022/06/20 00:43:58;;;;;;;13.00;2.70;;;;;;;14.41;83.14;101292.66;5011722;28;20030;-77
2022/06/20 00:46:44;;;;;;;13.27;3.03;;;;;;;14.51;84.95;101347.34;5012406;28;20030;-77
2022/06/20 00:49:19;;;;;;;11.25;2.75;;;;;;;14.44;85.13;101375.78;5012296;28;20034;-76
2022/06/20 00:51:51;;;;;;;13.57;2.75;;;;;;;14.40;87.71;101402.63;5014884;28;20084;-77
2022/06/20 00:54:23;;;;;;;10.60;2.80;;;;;;;14.35;88.00;101438.72;5014779;28;20277;-75
2022/06/20 00:57:18;;;;;;;11.82;2.58;;;;;;;14.38;88.36;101425.72;4998139;28;20025;-77
2022/06/20 00:59:49;;;;;;;13.70;2.60;;;;;;;14.36;87.56;101391.41;5031075;28;20030;-77
2022/06/20 01:02:24;;;;;;;13.40;2.60;;;;;;;14.41;87.19;101382.50;5043869;28;20572;-76
2022/06/20 01:05:00;;;;;;;9.63;2.38;;;;;;;14.42;88.76;101351.50;5055364;28;20101;-76
2022/06/20 01:07:53;;;;;;;13.00;2.78;;;;;;;14.41;87.02;101354.47;5055617;28;20471;-76
2022/06/20 01:10:20;;;;;;;10.82;2.75;;;;;;;14.41;87.66;101344.41;5015632;28;20034;-77
2022/06/20 01:13:00;;;;;;;11.77;2.35;;;;;;;14.46;91.76;101330.06;5030719;28;20030;-77
2022/06/20 01:15:34;;;;;;;22.70;3.47;;;;;;;14.43;90.93;101315.06;5015560;28;20079;-76
2022/06/20 01:17:59;;;;;;;13.80;2.60;;;;;;;14.42;88.63;101307.09;4997579;28;20397;-77
2022/06/20 01:20:28;;;;;;;12.07;2.70;;;;;;;14.30;89.55;101297.06;5019380;28;20038;-77
2022/06/20 01:23:05;;;;;;;12.30;2.60;;;;;;;14.28;90.11;101288.31;5034749;28;20056;-76
2022/06/20 01:26:03;;;;;;;13.07;3.00;;;;;;;14.26;90.19;101282.28;5016818;28;20056;-76
2022/06/20 01:28:44;;;;;;;16.00;2.72;;;;;;;14.21;91.44;101265.84;5019551;28;20393;-76
2022/06/20 01:31:13;;;;;;;15.13;2.78;;;;;;;14.15;91.74;101258.63;5024587;28;20076;-77
2022/06/20 01:33:38;;;;;;;11.30;2.90;;;;;;;14.12;93.59;101259.94;5015201;28;20093;-76
2022/06/20 01:38:49;;;;;;;14.98;3.25;;;;;;;14.12;93.81;101257.19;5014949;28;20125;-77
2022/06/20 01:44:02;;;;;;;13.07;3.13;;;;;;;14.08;91.51;101247.03;5014782;28;20063;-77
2022/06/20 01:46:30;;;;;;;11.93;2.40;;;;;;;14.04;90.80;101230.38;5015096;28;20040;-76
2022/06/20 01:48:59;;;;;;;12.55;2.58;;;;;;;14.02;91.10;101228.94;5014397;28;20416;-76
2022/06/20 01:51:33;;;;;;;11.70;2.75;;;;;;;13.94;91.23;101236.41;5024669;28;20034;-76
2022/06/20 01:53:59;;;;;;;11.65;3.05;;;;;;;13.95;90.87;101226.34;5016720;28;20022;-77
2022/06/20 01:56:27;;;;;;;14.88;2.72;;;;;;;13.88;90.87;101229.19;5034340;28;20109;-76
2022/06/20 01:59:03;;;;;;;11.13;2.40;;;;;;;13.86;91.34;101225.03;5029269;28;20040;-76
2022/06/20 02:01:33;;;;;;;12.48;3.30;;;;;;;13.72;90.76;101228.00;5031919;28;20049;-76
2022/06/20 02:04:00;;;;;;;10.98;2.38;;;;;;;13.64;92.70;101220.22;5043252;28;20497;-77
2022/06/20 02:06:25;;;;;;;13.68;3.30;;;;;;;13.60;91.55;101211.72;5034288;28;20381;-77
2022/06/20 02:08:53;;;;;;;12.82;3.13;;;;;;;13.59;92.19;101211.94;5008856;28;20037;-77
2022/06/20 02:11:31;;;;;;;14.50;2.65;;;;;;;13.62;91.60;101204.13;5014555;28;20045;-77
2022/06/20 02:14:04;;;;;;;11.75;2.80;;;;;;;13.53;92.05;101202.84;5014614;28;20038;-76
2022/06/20 02:16:34;;;;;;;13.80;2.55;;;;;;;13.51;92.15;101191.34;5014559;28;20572;-76
2022/06/20 02:19:03;;;;;;;15.13;2.72;;;;;;;13.49;92.41;101184.50;5017826;28;20116;-77
2022/06/20 02:21:32;;;;;;;12.73;2.88;;;;;;;13.45;90.59;101179.56;5032322;28;20029;-78
2022/06/20 02:24:05;;;;;;;9.25;2.50;;;;;;;13.48;91.74;101178.22;5032524;28;20021;-78
2022/06/20 02:26:35;;;;;;;9.43;2.40;;;;;;;13.43;91.74;101167.25;5034255;28;20037;-78
2022/06/20 02:29:09;;;;;;;11.60;2.97;;;;;;;13.39;92.84;101180.50;5026028;28;20385;-78
2022/06/20 02:31:35;;;;;;;10.90;2.53;;;;;;;13.33;92.54;101175.13;5006295;28;20029;-77
2022/06/20 02:34:02;;;;;;;13.13;2.55;;;;;;;13.29;92.79;101174.78;5009945;28;20397;-79
2022/06/20 02:36:29;;;;;;;14.23;2.63;;;;;;;13.28;92.61;101175.84;5014159;28;20132;-83
2022/06/20 02:38:55;;;;;;;14.88;2.60;;;;;;;13.26;92.68;101176.06;5001827;28;20392;-74
2022/06/20 02:41:24;;;;;;;12.95;2.50;;;;;;;13.28;92.23;101178.56;5032407;28;20033;-74
2022/06/20 02:43:56;;;;;;;10.73;2.22;;;;;;;13.33;92.37;101175.13;5033573;28;20457;-74
2022/06/20 02:46:25;;;;;;;10.65;2.60;;;;;;;13.28;91.48;101160.34;5033755;28;20257;-74
2022/06/20 02:48:52;;;;;;;12.85;2.17;;;;;;;13.26;91.43;101153.50;5027737;28;20030;-74
2022/06/20 02:51:23;;;;;;;11.73;2.63;;;;;;;13.22;91.72;101158.56;5020942;28;20030;-74
2022/06/20 02:53:55;;;;;;;9.75;2.30;;;;;;;13.31;92.01;101156.34;5013377;28;20046;-74
2022/06/20 02:56:22;;;;;;;10.75;2.30;;;;;;;13.29;90.26;101136.72;5013746;28;20030;-75
2022/06/20 02:58:54;;;;;;;9.93;2.10;;;;;;;13.24;90.45;101129.28;5013352;28;20026;-74
2022/06/20 03:02:04;;;;;;;10.30;2.40;;;;;;;13.28;90.15;101126.91;5020859;28;20114;-74
2022/06/20 03:04:32;;;;;;;8.88;2.38;;;;;;;13.18;90.41;101113.94;5044209;28;20048;-74
2022/06/20 03:07:02;;;;;;;12.50;2.50;;;;;;;13.15;89.84;101124.44;5052807;28;20476;-74
2022/06/20 03:09:31;;;;;;;12.63;2.40;;;;;;;13.17;91.04;101131.28;5032481;28;20044;-74
2022/06/20 03:11:59;;;;;;;13.27;2.72;;;;;;;13.17;90.71;101131.28;5025240;28;20034;-74
2022/06/20 03:14:30;;;;;;;12.88;2.40;;;;;;;13.14;91.05;101139.09;5032576;28;20033;-74
2022/06/20 03:16:57;;;;;;;12.20;2.22;;;;;;;13.17;91.98;101147.59;5033241;28;20080;-74
2022/06/20 03:19:27;;;;;;;10.15;2.42;;;;;;;13.14;90.74;101145.34;5024467;28;20121;-74
2022/06/20 03:21:57;;;;;;;9.93;2.28;;;;;;;13.19;90.72;101159.03;5023677;28;20087;-74
2022/06/20 03:24:24;;;;;;;7.60;2.28;;;;;;;13.17;90.35;101161.19;5032316;28;20033;-74
2022/06/20 03:26:51;;;;;;;7.75;2.15;;;;;;;13.18;89.45;101165.56;5032794;28;20021;-74
2022/06/20 03:29:17;;;;;;;13.85;2.33;;;;;;;13.20;89.74;101163.44;5024726;28;20026;-74
2022/06/20 03:31:43;;;;;;;8.30;2.05;;;;;;;13.22;90.85;101153.13;5012951;28;20049;-74
2022/06/20 03:34:09;;;;;;;11.48;2.78;;;;;;;13.16;89.82;101162.22;5013213;28;20037;-74
2022/06/20 03:36:35;;;;;;;10.02;2.33;;;;;;;13.16;89.68;101173.09;5012912;28;20377;-74
2022/06/20 03:39:01;;;;;;;11.43;2.30;;;;;;;13.14;90.15;101183.38;5012457;28;20022;-74
2022/06/20 03:41:27;;;;;;;10.10;2.72;;;;;;;13.10;90.66;101182.19;5012637;28;20099;-74
2022/06/20 03:44:00;;;;;;;7.70;2.10;;;;;;;13.19;91.12;101197.09;5012865;28;20033;-74
2022/06/20 03:46:43;;;;;;;8.05;2.35;;;;;;;13.20;90.27;101203.38;5013314;28;20424;-74
2022/06/20 03:49:14;;;;;;;9.10;2.33;;;;;;;13.20;89.26;101215.06;5018654;28;20264;-74
2022/06/20 03:51:53;;;;;;;16.63;2.65;;;;;;;13.25;89.54;101226.03;5031630;28;20057;-74
2022/06/20 03:54:33;;;;;;;8.63;2.38;;;;;;;13.24;89.50;101227.13;5031811;28;20041;-74
2022/06/20 03:57:01;;;;;;;8.48;1.77;;;;;;;13.27;88.51;101231.25;5032415;28;20527;-74
2022/06/20 03:59:34;;;;;;;9.30;2.40;;;;;;;13.35;90.70;101230.13;5016944;28;20046;-74
2022/06/20 04:02:08;;;;;;;10.82;2.25;;;;;;;13.32;89.64;101231.38;5032134;28;20395;-74
2022/06/20 04:04:52;;;;;;;9.13;2.75;;;;;;;13.38;89.85;101237.81;5052453;28;20464;-75
2022/06/20 04:07:28;;;;;;;10.52;2.17;;;;;;;13.35;90.19;101235.56;5052207;28;20033;-74
2022/06/20 04:13:34;;;;;;;9.80;2.42;;;;;;;13.40;90.84;101236.50;5012598;28;20470;-74
2022/06/20 04:16:21;;;;;;;12.43;2.67;;;;;;;13.35;93.46;101241.81;5012519;28;20034;-74
2022/06/20 04:19:06;;;;;;;11.20;2.40;;;;;;;13.32;93.64;101249.59;5012899;28;20992;-74
2022/06/20 04:21:53;;;;;;;15.88;2.50;;;;;;;13.32;93.93;101250.41;5021419;28;20455;-75
2022/06/20 04:24:39;;;;;;;9.82;2.40;;;;;;;13.36;95.63;101253.50;5032907;28;20030;-74
2022/06/20 04:27:16;;;;;;;12.80;2.80;;;;;;;13.35;96.29;101257.31;5036087;28;20021;-74
2022/06/20 04:29:47;;;;;;;11.05;2.30;;;;;;;13.33;97.62;101253.94;5019408;28;20108;-74
2022/06/20 04:32:25;;;;;;;10.87;2.77;;;;;;;13.33;97.86;101268.38;5016164;28;20044;-74
2022/06/20 04:35:02;;;;;;;10.68;2.42;;;;;;;13.36;97.92;101262.53;5016158;28;20280;-74
2022/06/20 04:37:47;;;;;;;12.05;2.83;;;;;;;13.37;98.77;101269.59;5016521;28;20477;-74
2022/06/20 04:40:27;;;;;;;13.20;2.42;;;;;;;13.37;98.89;101266.88;5016222;28;20067;-74
2022/06/20 04:43:22;;;;;;;12.90;2.47;;;;;;;13.42;97.39;101269.72;5016069;28;20026;-74
2022/06/20 04:45:57;;;;;;;8.93;2.25;;;;;;;13.41;98.77;101273.50;4998417;28;20038;-74
2022/06/20 04:48:24;;;;;;;10.43;2.47;;;;;;;13.45;99.81;101276.56;5016327;28;20441;-74
2022/06/20 04:51:01;;;;;;;12.50;3.00;;;;;;;13.51;98.87;101281.06;5015814;28;20038;-74
2022/06/20 04:53:32;;;;;;;11.88;2.80;;;;;;;13.53;99.40;101284.41;5027311;28;20037;-74
2022/06/20 04:55:59;;;;;;;10.95;2.58;;;;;;;13.54;99.32;101290.66;5035309;28;20381;-74
2022/06/20 04:58:34;;;;;;;11.65;2.63;;;;;;;13.58;99.96;101287.25;5034714;28;20053;-74
2022/06/20 05:01:00;;;;;;;9.50;2.13;;;;;;;13.69;100.00;101282.88;5034958;28;20066;-74
2022/06/20 05:03:31;;;;;;;11.77;2.58;;;;;;;13.80;100.00;101290.22;5055514;28;20029;-74
2022/06/20 05:05:59;;;;;;;14.20;2.83;;;;;;;13.81;99.16;101291.03;5055087;28;20029;-74
2022/06/20 05:08:39;;;;;;;11.70;2.80;;;;;;;13.90;98.32;101295.06;5049618;28;20034;-74
2022/06/20 05:11:10;;;;;;;12.43;2.80;;;;;;;13.86;98.74;101287.63;5015806;28;20033;-74
2022/06/20 05:13:43;;;;;;;11.88;2.60;;;;;;;13.93;98.85;101297.31;5015520;28;20034;-74
2022/06/20 05:16:17;;;;;;;12.48;2.55;;;;;;;13.92;99.48;101289.38;5015504;28;20041;-74
2022/06/20 05:18:46;;;;;;;12.27;3.15;;;;;;;13.89;98.91;101293.44;5020809;28;20046;-74
2022/06/20 05:21:24;;;;;;;10.63;2.58;;;;;;;13.92;98.97;101301.13;5015399;28;20385;-74
2022/06/20 05:23:56;;;;;;;9.20;2.80;;;;;;;13.88;99.12;101308.09;5015311;28;20034;-74
2022/06/20 05:26:29;;;;;;;11.80;2.72;;;;;;;13.90;98.56;101325.00;5016131;28;20037;-74
2022/06/20 05:28:57;;;;;;;16.83;3.35;;;;;;;13.89;99.79;101320.63;5015043;28;20022;-74
2022/06/20 05:31:31;;;;;;;10.77;2.67;;;;;;;13.94;99.84;101307.13;5015425;28;20030;-74
2022/06/20 05:34:02;;;;;;;12.52;2.42;;;;;;;13.91;98.15;101302.16;5015215;28;20029;-74
2022/06/20 05:36:59;;;;;;;14.43;2.95;;;;;;;14.05;97.73;101299.22;5019633;28;20037;-74
2022/06/20 05:39:33;;;;;;;11.95;2.58;;;;;;;13.98;97.14;101302.88;5028606;28;20497;-74
2022/06/20 05:41:59;;;;;;;10.32;2.70;;;;;;;14.03;97.61;101293.19;5015171;28;20033;-74
2022/06/20 05:44:24;;;;;;;12.88;2.65;;;;;;;13.98;97.12;101293.91;5015175;28;20030;-74
2022/06/20 05:46:56;;;;;;;11.40;2.47;;;;;;;14.02;96.87;101291.53;5015484;28;20118;-74
2022/06/20 05:49:30;;;;;;;15.25;2.60;;;;;;;13.95;96.86;101295.19;5015011;28;20041;-74
2022/06/20 05:51:58;;;;;;;11.10;2.88;;;;;;;13.99;96.42;101292.81;5014852;28;20030;-74
2022/06/20 05:54:28;;;;;;;10.00;2.60;;;;;;;14.04;98.67;101300.28;5015023;28;20037;-74
2022/06/20 05:57:01;;;;;;;11.93;2.97;;;;;;;14.09;95.64;101316.75;5023108;28;20115;-74
2022/06/20 05:59:27;;;;;;;11.95;2.80;;;;;;;14.09;95.75;101311.28;5028313;28;20462;-74
2022/06/20 06:01:55;;;;;;;11.82;2.65;;;;;;;14.05;95.13;101315.53;5026697;28;20053;-74
2022/06/20 06:04:36;;;;;;;12.40;2.85;;;;;;;14.10;95.39;101315.66;5054305;28;20025;-74
2022/06/20 06:07:19;;;;;;;11.10;2.85;;;;;;;14.12;95.52;101313.53;5034778;28;20030;-74
2022/06/20 06:09:53;;;;;;;9.30;2.50;;;;;;;14.16;97.06;101318.28;5025992;28;20038;-74
2022/06/20 06:12:27;;;;;;;7.63;2.35;;;;;;;14.19;93.94;101314.22;5014703;28;20489;-74
2022/06/20 06:15:00;;;;;;;13.52;3.35;;;;;;;14.19;94.21;101316.94;5014724;28;20084;-74
2022/06/20 06:17:40;;;;;;;9.15;2.40;;;;;;;14.22;93.92;101313.78;5026439;28;20059;-74
2022/06/20 06:20:12;;;;;;;11.77;2.85;;;;;;;14.17;92.85;101316.38;5015482;28;20033;-74
2022/06/20 06:22:43;;;;;;;8.77;2.45;;;;;;;14.13;91.68;101320.63;5034175;28;20032;-74
2022/06/20 06:25:28;;;;;;;9.65;2.20;;;;;;;14.17;92.21;101317.19;5034004;28;20033;-73
2022/06/20 06:27:57;;;;;;;11.02;2.58;;;;;;;14.18;88.54;101324.28;5018027;28;20393;-73
2022/06/20 06:30:29;;;;;;;9.05;2.50;;;;;;;14.21;91.25;101333.88;5023099;28;20400;-73
2022/06/20 06:33:03;;;;;;;9.45;2.53;;;;;;;14.22;88.65;101324.66;5013612;28;20501;-73
2022/06/20 06:35:35;;;;;;;9.98;2.28;;;;;;;14.25;88.24;101317.91;5013832;28;20026;-73
2022/06/20 06:38:09;;;;;;;6.22;1.92;;;;;;;14.25;89.20;101317.91;5029322;28;20461;-73
2022/06/20 06:40:46;;;;;;;11.73;2.38;;;;;;;14.24;90.03;101317.06;5032477;28;20405;-73
2022/06/20 06:43:26;;;;;;;9.38;2.20;;;;;;;14.28;87.89;101329.16;5033491;28;20086;-73
2022/06/20 06:45:59;;;;;;;7.25;2.35;;;;;;;14.31;88.83;101336.84;5033709;28;20037;-73
2022/06/20 06:48:35;;;;;;;5.43;2.35;;;;;;;14.44;90.23;101338.47;5013392;28;20025;-73
2022/06/20 06:51:05;;;;;;;6.78;2.25;;;;;;;14.49;86.14;101340.47;5013551;28;20049;-73
2022/06/20 06:53:38;;;;;;;11.35;2.30;;;;;;;14.60;85.94;101342.38;5023879;28;20401;-73
2022/06/20 06:56:28;;;;;;;9.13;2.15;;;;;;;14.62;83.46;101350.31;5033309;28;20077;-73
2022/06/20 06:59:10;;;;;;;5.47;2.00;;;;;;;14.69;84.87;101351.03;5000904;28;20046;-78
2022/06/20 07:01:44;;;;;;;8.57;2.25;;;;;;;14.81;82.73;101346.38;5021326;28;20454;-74
2022/06/20 07:04:25;;;;;;;11.10;2.17;;;;;;;14.98;79.77;101354.59;5034426;28;20025;-76
2022/06/20 07:07:02;;;;;;;8.15;2.40;;;;;;;15.01;78.63;101359.56;5033721;28;20025;-74
2022/06/20 07:09:32;;;;;;;9.48;2.15;;;;;;;15.05;80.11;101360.75;5031997;28;20439;-74
2022/06/20 07:11:58;;;;;;;5.95;2.00;;;;;;;15.05;79.10;101374.38;5033138;28;20025;-74
2022/06/20 07:14:23;;;;;;;8.50;2.47;;;;;;;14.93;79.32;101370.88;5025339;28;20052;-75
2022/06/20 07:16:57;;;;;;;8.10;2.10;;;;;;;14.84;81.69;101372.28;5016549;28;20284;-75
2022/06/20 07:19:24;;;;;;;9.75;2.28;;;;;;;14.81;81.84;101370.03;5013439;28;20029;-75
2022/06/20 07:21:50;;;;;;;7.88;2.17;;;;;;;14.74;78.39;101377.56;5013029;28;20444;-74
2022/06/20 07:24:22;;;;;;;11.68;2.92;;;;;;;14.63;78.19;101385.50;5012579;28;20053;-74
2022/06/20 07:26:51;;;;;;;8.02;2.10;;;;;;;14.62;77.79;101383.81;5023453;28;20037;-74
2022/06/20 07:29:22;;;;;;;6.55;2.30;;;;;;;14.63;78.82;101380.06;5033023;28;20443;-75
2022/06/20 07:31:52;;;;;;;9.83;2.50;;;;;;;14.80;80.56;101373.84;5033229;28;20073;-75
2022/06/20 07:34:24;;;;;;;6.30;2.10;;;;;;;14.98;79.09;101375.59;5023643;28;20029;-74
2022/06/20 07:36:56;;;;;;;9.77;2.10;;;;;;;15.13;77.64;101375.06;5011533;28;20050;-74
2022/06/20 07:39:30;;;;;;;6.97;2.30;;;;;;;15.29;74.55;101373.44;5011785;28;20069;-75
2022/06/20 07:42:02;;;;;;;6.88;2.30;;;;;;;15.46;75.43;101373.47;5012980;28;20032;-75
2022/06/20 07:44:42;;;;;;;11.32;2.50;;;;;;;15.45;73.11;101371.84;5012148;28;20034;-75
2022/06/20 07:47:17;;;;;;;7.25;2.03;;;;;;;15.46;72.19;101377.06;5011357;28;20409;-77
2022/06/20 07:49:53;;;;;;;7.10;2.40;;;;;;;15.41;72.21;101383.25;5024911;28;20431;-74
2022/06/20 07:52:25;;;;;;;11.13;2.30;;;;;;;15.33;70.42;101391.00;5031368;28;20123;-74
2022/06/20 07:54:56;;;;;;;12.80;2.75;;;;;;;15.28;69.57;101388.16;5039129;28;20029;-73
2022/06/20 07:57:39;;;;;;;8.27;2.00;;;;;;;15.23;68.88;101388.88;5032528;28;20038;-74
2022/06/20 08:00:15;;;;;;;6.90;1.90;;;;;;;15.15;69.53;101394.72;5014376;28;20025;-73
2022/06/20 08:02:49;;;;;;;4.93;1.77;;;;;;;15.23;68.94;101388.88;5028303;28;20099;-73
2022/06/20 08:05:22;;;;;;;8.27;2.38;;;;;;;15.37;68.77;101395.72;5034043;28;20064;-75
2022/06/20 08:07:57;;;;;;;5.10;1.85;;;;;;;15.58;64.43;101401.56;5031572;28;20037;-75
2022/06/20 08:10:37;;;;;;;7.15;2.50;;;;;;;15.79;66.89;101396.47;5023196;28;20038;-72
2022/06/20 08:13:13;;;;;;;7.15;2.47;;;;;;;15.86;64.55;101386.22;5012392;28;20615;-73
2022/06/20 08:16:03;;;;;;;15.88;3.10;;;;;;;16.03;65.81;101395.22;5030056;28;20030;-72
2022/06/20 08:18:29;;;;;;;10.20;2.40;;;;;;;16.00;64.58;101395.72;5031565;28;20025;-76
2022/06/20 08:21:17;;;;;;;5.75;2.28;;;;;;;16.00;65.28;101393.00;5016172;28;20481;-74
2022/06/20 08:23:52;;;;;;;9.00;3.00;;;;;;;15.90;67.30;101398.31;5012746;28;20117;-73
2022/06/20 08:26:27;;;;;;;7.80;2.50;;;;;;;15.86;67.80;101402.59;5012433;28;20061;-73
2022/06/20 08:28:56;;;;;;;8.23;2.45;;;;;;;15.75;67.67;101394.19;5015522;28;20037;-72
2022/06/20 08:31:31;;;;;;;8.45;2.53;;;;;;;15.66;66.37;101403.88;5032279;28;20055;-73
2022/06/20 08:34:11;;;;;;;8.10;2.78;;;;;;;15.63;66.31;101406.28;5012580;28;20029;-74
2022/06/20 08:36:48;;;;;;;7.88;2.80;;;;;;;15.56;66.01;101404.50;5012293;28;20065;-74
2022/06/20 08:39:41;;;;;;;4.82;2.38;;;;;;;15.69;68.24;101413.47;5012418;28;20034;-74
2022/06/20 08:42:22;;;;;;;9.05;2.47;;;;;;;15.82;66.63;101402.28;5012055;28;20029;-74
2022/06/20 08:45:05;;;;;;;7.40;2.28;;;;;;;16.01;63.72;101416.50;5012243;28;20030;-74
2022/06/20 08:48:01;;;;;;;6.53;2.05;;;;;;;16.15;63.05;101410.72;5012242;28;20436;-75
2022/06/20 08:51:14;;;;;;;7.18;2.05;;;;;;;16.33;62.39;101424.09;5026781;28;20056;-75
2022/06/20 08:53:58;;;;;;;7.03;2.30;;;;;;;16.34;64.00;101419.50;4990641;28;20428;-74
2022/06/20 08:56:48;;;;;;;9.30;2.85;;;;;;;16.23;64.45;101430.25;5013289;28;20087;-72
2022/06/20 08:59:33;;;;;;;6.72;2.35;;;;;;;16.05;64.40;101430.50;5013243;28;20042;-73
2022/06/20 09:02:06;;;;;;;5.85;2.35;;;;;;;15.97;64.85;101442.63;5024325;28;20068;-73
2022/06/20 09:04:43;;;;;;;5.97;2.40;;;;;;;15.90;64.04;101441.97;4998818;28;20033;-75
2022/06/20 09:07:38;;;;;;;7.22;2.30;;;;;;;16.07;63.66;101436.53;5011992;28;20026;-74
2022/06/20 09:10:19;;;;;;;5.18;2.08;;;;;;;16.31;63.54;101434.47;5015195;28;20029;-72
2022/06/20 09:13:06;;;;;;;7.18;2.30;;;;;;;16.54;62.06;101430.69;5029101;28;20033;-71
2022/06/20 09:15:57;;;;;;;10.25;2.70;;;;;;;16.72;61.21;101436.97;5035909;28;20060;-71
2022/06/20 09:18:45;;;;;;;8.63;2.40;;;;;;;16.87;61.37;101439.13;5020064;28;20381;-73
2022/06/20 09:21:27;;;;;;;9.88;2.22;;;;;;;16.83;59.13;101445.06;5020115;28;20033;-73
2022/06/20 09:24:19;;;;;;;5.15;2.40;;;;;;;16.79;59.67;101449.38;5030898;28;20036;-72
2022/06/20 09:26:53;;;;;;;7.47;2.47;;;;;;;16.72;60.63;101450.63;4985951;28;20092;-71
2022/06/20 09:29:49;;;;;;;7.30;2.75;;;;;;;16.75;60.80;101450.94;5020446;28;20061;-73
2022/06/20 09:32:33;;;;;;;8.43;3.20;;;;;;;16.81;62.11;101447.22;5015490;28;20535;-71
2022/06/20 09:35:05;;;;;;;8.63;2.60;;;;;;;16.92;60.01;101448.19;5015108;28;20389;-74
2022/06/20 09:37:40;;;;;;;8.15;2.53;;;;;;;17.11;59.74;101453.38;5023862;28;20115;-71
2022/06/20 09:40:31;;;;;;;7.78;2.50;;;;;;;17.09;58.35;101450.91;5024618;28;20112;-71
2022/06/20 09:43:10;;;;;;;5.60;2.10;;;;;;;17.02;56.66;101447.53;5022184;28;20386;-72
2022/06/20 09:45:43;;;;;;;8.07;2.50;;;;;;;17.03;56.59;101449.19;5038100;28;20048;-70
2022/06/20 09:48:36;;;;;;;9.52;2.30;;;;;;;16.99;56.42;101456.22;5034698;28;20068;-69
2022/06/20 09:51:20;;;;;;;6.55;2.20;;;;;;;17.10;56.03;101451.72;5034520;28;20045;-69
2022/06/20 09:54:19;;;;;;;6.82;2.25;;;;;;;17.28;58.37;101434.16;5033763;28;20032;-69
2022/06/20 09:57:30;;;;;;;6.07;2.70;;;;;;;17.42;58.18;101446.38;5015028;28;20087;-69
2022/06/20 10:00:08;;;;;;;7.57;2.85;;;;;;;17.59;56.68;101437.22;5023788;28;20043;-70
2022/06/20 10:03:07;;;;;;;10.45;3.05;;;;;;;17.68;57.04;101438.44;5033479;28;20053;-70
2022/06/20 10:05:47;;;;;;;10.13;3.10;;;;;;;17.81;57.07;101442.66;5034526;28;20041;-69
2022/06/20 10:08:25;;;;;;;8.25;3.00;;;;;;;17.82;53.09;101447.88;5034178;28;20084;-70
2022/06/20 10:10:58;;;;;;;7.72;2.60;;;;;;;17.77;54.48;101442.34;5032245;28;20033;-71
2022/06/20 10:13:41;;;;;;;8.75;2.78;;;;;;;17.82;55.69;101452.53;5015207;28;20060;-70
2022/06/20 10:16:20;;;;;;;9.40;3.03;;;;;;;17.79;55.63;101453.84;5021420;28;20030;-70
2022/06/20 10:19:01;;;;;;;10.20;2.92;;;;;;;17.83;54.57;101456.91;5034076;28;20025;-69
2022/06/20 10:21:36;;;;;;;6.25;2.58;;;;;;;17.81;54.95;101448.94;5034045;28;20034;-69
2022/06/20 10:24:31;;;;;;;9.98;3.03;;;;;;;17.85;55.73;101443.78;5026792;28;20033;-70
2022/06/20 10:27:08;;;;;;;7.10;2.95;;;;;;;17.96;55.34;101455.69;5026722;28;20030;-72
2022/06/20 10:29:46;;;;;;;14.07;3.50;;;;;;;17.95;55.81;101456.75;5032652;28;20030;-70
2022/06/20 10:32:18;;;;;;;15.98;3.50;;;;;;;17.86;56.31;101468.16;5024626;28;20044;-70
2022/06/20 10:35:04;;;;;;;8.80;3.10;;;;;;;17.92;56.20;101466.34;5015016;28;20384;-71
2022/06/20 10:37:54;;;;;;;13.38;3.30;;;;;;;17.88;55.53;101474.19;5033859;28;20045;-71
2022/06/20 10:40:59;;;;;;;8.48;3.40;;;;;;;17.87;55.61;101474.47;5031464;28;20037;-71
2022/06/20 10:43:34;;;;;;;10.13;3.20;;;;;;;17.84;54.45;101469.50;5026145;28;20041;-71
2022/06/20 10:46:09;;;;;;;9.43;2.92;;;;;;;17.80;55.65;101471.94;5014677;28;20100;-72
2022/06/20 10:48:56;;;;;;;12.35;2.88;;;;;;;17.91;54.04;101494.81;5014589;28;20057;-71
2022/06/20 10:51:47;;;;;;;8.50;2.97;;;;;;;17.89;53.47;101483.28;5014143;28;20026;-71
2022/06/20 10:54:18;;;;;;;22.25;4.20;;;;;;;18.11;52.50;101485.13;5024966;28;20029;-72
2022/06/20 10:56:54;;;;;;;10.10;2.67;;;;;;;18.34;53.81;101489.41;5033664;28;20034;-72
2022/06/20 10:59:31;;;;;;;18.88;3.85;;;;;;;18.50;52.65;101493.94;5029358;28;20036;-72
2022/06/20 11:02:08;;;;;;;12.52;3.35;;;;;;;18.60;51.19;101490.47;5014579;28;20395;-71
2022/06/20 11:04:52;;;;;;;6.57;3.10;;;;;;;18.68;50.31;101494.63;5053162;28;20035;-71
2022/06/20 11:07:23;;;;;;;10.57;2.85;;;;;;;18.86;51.16;101498.88;5052931;28;20024;-71
2022/06/20 11:10:01;;;;;;;;;;;;;;;19.03;51.54;101499.50;5038241;28;20108;-73
2022/06/20 11:12:40;;;;;;;11.15;3.00;;;;;;;18.98;50.69;101504.13;5013137;28;20021;-72
2022/06/20 11:15:20;;;;;;;10.52;2.95;;;;;;;19.16;52.08;101500.97;5013613;28;20369;-70
2022/06/20 11:17:48;;;;;;;10.93;2.80;;;;;;;18.92;50.92;101509.59;5013558;28;20050;-73
2022/06/20 11:20:49;;;;;;;8.65;2.95;;;;;;;18.90;51.13;101510.94;5013459;28;20030;-73
2022/06/20 11:23:19;;;;;;;8.38;2.60;;;;;;;18.84;52.66;101501.84;4994614;28;20046;-73
2022/06/20 11:25:54;;;;;;;10.32;3.15;;;;;;;18.82;50.59;101504.03;5013395;28;20034;-72
2022/06/20 11:28:22;;;;;;;8.70;2.90;;;;;;;18.93;50.07;101500.28;5012771;28;20037;-71
2022/06/20 11:31:07;;;;;;;7.30;2.75;;;;;;;18.79;51.43;101507.28;5024466;28;20040;-71
2022/06/20 11:36:54;;;;;;;11.13;2.90;;;;;;;18.70;52.06;101498.72;5023403;28;20053;-71
2022/06/20 11:39:50;;;;;;;10.48;2.90;;;;;;;18.60;53.17;101506.91;5013039;28;20117;-73
2022/06/20 11:42:18;;;;;;;10.25;3.00;;;;;;;18.59;51.32;101502.50;5012868;28;20376;-72
2022/06/20 11:44:44;;;;;;;11.52;3.25;;;;;;;18.81;50.83;101502.38;5013622;28;20037;-74
2022/06/20 11:47:28;;;;;;;9.70;3.17;;;;;;;18.80;50.65;101492.50;5012799;28;20469;-70
2022/06/20 11:50:35;;;;;;;7.10;2.65;;;;;;;18.91;50.43;101496.16;5012485;28;20368;-72
2022/06/20 11:53:18;;;;;;;13.07;3.10;;;;;;;19.05;50.04;101489.13;4933026;29;20032;-72
2022/06/20 11:55:52;;;;;;;10.30;2.60;;;;;;;18.99;50.21;101490.16;4933046;29;20503;-71
2022/06/20 11:58:39;;;;;;;17.60;2.97;;;;;;;19.17;48.58;101485.31;4990433;28;20469;-70
2022/06/20 12:01:13;;;;;;;8.80;2.40;;;;;;;19.34;50.21;101485.94;5017981;28;20030;-68
2022/06/20 12:03:44;;;;;;;8.32;2.40;;;;;;;19.29;48.51;101488.66;5034081;28;20036;-68
2022/06/20 12:06:33;;;;;;;8.30;2.42;;;;;;;19.27;49.03;101491.66;5014786;28;20392;-69
2022/06/20 12:09:13;;;;;;;9.85;2.60;;;;;;;19.31;50.19;101497.47;5032341;28;20034;-69
2022/06/20 12:12:12;;;;;;;10.32;2.55;;;;;;;19.55;49.69;101495.09;5029897;28;20053;-69
2022/06/20 12:14:40;;;;;;;7.82;2.60;;;;;;;19.76;48.20;101500.59;5015625;28;20482;-71